createdAt,value
2022-08-31T00:00:30.457Z,20.30
2022-08-31T00:03:16.248Z,20.30
2022-08-31T00:05:45.962Z,20.30
2022-08-31T00:08:14.049Z,20.20
2022-08-31T00:10:46.099Z,20.20
2022-08-31T00:13:14.445Z,20.20
2022-08-31T00:15:43.463Z,20.20
2022-08-31T00:18:11.706Z,20.10
2022-08-31T00:20:40.020Z,20.20
2022-08-31T00:23:12.319Z,20.20
2022-08-31T00:25:42.317Z,20.20
2022-08-31T00:28:11.472Z,20.20
2022-08-31T00:30:39.766Z,20.20
2022-08-31T00:33:08.211Z,20.10
2022-08-31T00:35:37.680Z,20.20
2022-08-31T00:38:06.892Z,20.20
2022-08-31T00:40:44.364Z,20.20
2022-08-31T00:43:12.931Z,20.20
2022-08-31T00:45:41.037Z,20.10
2022-08-31T00:48:09.001Z,20.10
2022-08-31T00:50:37.016Z,20.10
2022-08-31T00:53:05.390Z,20.10
2022-08-31T00:55:37.436Z,20.00
2022-08-31T00:58:10.039Z,20.00
2022-08-31T01:00:38.200Z,20.00
2022-08-31T01:03:09.208Z,20.00
2022-08-31T01:05:37.607Z,20.00
2022-08-31T01:08:07.240Z,20.00
2022-08-31T01:10:39.992Z,20.00
2022-08-31T01:13:08.991Z,19.90
2022-08-31T01:15:38.825Z,20.00
2022-08-31T01:18:08.292Z,20.00
2022-08-31T01:20:48.932Z,20.00
2022-08-31T01:23:22.092Z,20.00
2022-08-31T01:25:51.038Z,19.90
2022-08-31T01:28:19.549Z,20.00
2022-08-31T01:31:02.539Z,20.00
2022-08-31T01:33:31.123Z,19.90
2022-08-31T01:36:00.173Z,19.90
2022-08-31T01:38:30.514Z,19.90
2022-08-31T01:41:02.121Z,19.90
2022-08-31T01:43:33.856Z,19.90
2022-08-31T01:46:02.161Z,19.80
2022-08-31T01:48:30.709Z,19.90
2022-08-31T01:50:58.764Z,19.80
2022-08-31T01:53:26.872Z,19.80
2022-08-31T01:55:56.217Z,19.80
2022-08-31T01:58:24.208Z,19.80
2022-08-31T02:00:52.389Z,19.80
2022-08-31T02:03:20.452Z,19.80
2022-08-31T02:05:48.420Z,19.80
2022-08-31T02:08:16.422Z,19.80
2022-08-31T02:10:44.420Z,19.80
2022-08-31T02:13:14.039Z,19.80
2022-08-31T02:15:42.272Z,19.80
2022-08-31T02:18:10.207Z,19.80
2022-08-31T02:20:40.131Z,19.70
2022-08-31T02:23:08.067Z,19.70
2022-08-31T02:25:36.375Z,19.70
2022-08-31T02:28:05.207Z,19.70
2022-08-31T02:30:34.591Z,19.70
2022-08-31T02:33:02.589Z,19.70
2022-08-31T02:35:30.716Z,19.70
2022-08-31T02:37:58.699Z,19.70
2022-08-31T02:40:27.334Z,19.60
2022-08-31T02:42:55.444Z,19.60
2022-08-31T02:45:24.330Z,19.50
2022-08-31T02:47:53.660Z,19.50
2022-08-31T02:50:22.015Z,19.50
2022-08-31T02:52:50.612Z,19.50
2022-08-31T02:55:19.015Z,19.40
2022-08-31T02:57:50.049Z,19.40
2022-08-31T03:00:19.106Z,19.40
2022-08-31T03:02:47.081Z,19.30
2022-08-31T03:05:16.678Z,19.20
2022-08-31T03:07:45.442Z,19.20
2022-08-31T03:10:14.973Z,19.20
2022-08-31T03:12:43.593Z,19.10
2022-08-31T03:15:12.560Z,19.00
2022-08-31T03:17:40.565Z,19.00
2022-08-31T03:20:10.139Z,19.00
2022-08-31T03:22:40.137Z,19.00
2022-08-31T03:25:14.185Z,18.90
2022-08-31T03:27:42.100Z,18.90
2022-08-31T03:30:14.263Z,18.90
2022-08-31T03:32:42.822Z,18.90
2022-08-31T03:35:11.079Z,18.90
2022-08-31T03:37:40.383Z,18.90
2022-08-31T03:40:10.165Z,18.80
2022-08-31T03:42:38.659Z,18.90
2022-08-31T03:45:08.576Z,18.90
2022-08-31T03:47:44.476Z,18.90
2022-08-31T03:50:15.775Z,18.90
2022-08-31T03:52:45.104Z,18.90
2022-08-31T03:55:14.102Z,18.80
2022-08-31T03:57:42.066Z,18.90
2022-08-31T04:00:11.395Z,18.80
2022-08-31T04:02:40.198Z,18.80
2022-08-31T04:05:10.031Z,18.80
2022-08-31T04:07:42.323Z,18.80
2022-08-31T04:10:13.951Z,18.80
2022-08-31T04:12:42.196Z,18.80
2022-08-31T04:15:11.623Z,18.80
2022-08-31T04:17:39.644Z,18.70
2022-08-31T04:20:08.535Z,18.70
2022-08-31T04:22:36.471Z,18.70
2022-08-31T04:25:05.367Z,18.70
2022-08-31T04:27:34.639Z,18.70
2022-08-31T04:30:03.856Z,18.80
2022-08-31T04:32:31.875Z,18.70
2022-08-31T04:34:59.873Z,18.80
2022-08-31T04:37:27.824Z,18.80
2022-08-31T04:39:56.210Z,18.80
2022-08-31T04:42:27.203Z,18.70
2022-08-31T04:44:56.655Z,18.80
2022-08-31T04:47:24.695Z,18.80
2022-08-31T04:49:55.615Z,18.80
2022-08-31T04:52:28.299Z,18.80
2022-08-31T04:54:57.509Z,18.80
2022-08-31T04:57:25.881Z,18.80
2022-08-31T04:59:54.276Z,19.00
2022-08-31T05:02:24.283Z,18.90
2022-08-31T05:04:52.736Z,18.90
2022-08-31T05:07:21.132Z,18.90
2022-08-31T05:09:52.650Z,18.80
2022-08-31T05:12:21.582Z,18.70
2022-08-31T05:14:49.564Z,18.70
2022-08-31T05:17:17.653Z,18.70
2022-08-31T05:19:47.038Z,18.70
2022-08-31T05:22:15.043Z,18.80
2022-08-31T05:24:43.027Z,18.80
2022-08-31T05:27:11.029Z,18.80
2022-08-31T05:29:38.983Z,18.90
2022-08-31T05:32:07.316Z,18.90
2022-08-31T05:34:35.290Z,19.00
2022-08-31T05:37:04.816Z,19.10
2022-08-31T05:39:33.381Z,19.20
2022-08-31T05:42:01.519Z,19.40
2022-08-31T05:44:29.759Z,19.50
2022-08-31T05:47:03.365Z,19.50
2022-08-31T05:49:32.615Z,19.70
2022-08-31T05:52:01.130Z,19.80
2022-08-31T05:54:30.552Z,20.00
2022-08-31T05:57:01.495Z,20.20
2022-08-31T05:59:30.980Z,20.30
2022-08-31T06:01:59.356Z,20.50
2022-08-31T06:04:29.051Z,20.60
2022-08-31T06:06:58.281Z,20.80
2022-08-31T06:09:27.279Z,21.00
2022-08-31T06:11:56.904Z,21.10
2022-08-31T06:14:24.967Z,21.30
2022-08-31T06:16:56.343Z,21.50
2022-08-31T06:19:24.581Z,21.60
2022-08-31T06:21:52.754Z,21.60
2022-08-31T06:24:21.438Z,21.80
2022-08-31T06:26:58.513Z,21.80
2022-08-31T06:29:31.481Z,21.80
2022-08-31T06:32:00.719Z,22.00
2022-08-31T06:34:30.607Z,22.20
2022-08-31T06:36:59.971Z,22.30
2022-08-31T06:39:28.058Z,22.30
2022-08-31T06:41:57.656Z,22.40
2022-08-31T06:44:26.362Z,22.30
2022-08-31T06:46:56.163Z,22.30
2022-08-31T06:49:24.717Z,22.10
2022-08-31T06:51:53.222Z,21.90
2022-08-31T06:54:29.469Z,22.00
2022-08-31T06:56:58.800Z,22.10
2022-08-31T06:59:29.186Z,22.10
2022-08-31T07:01:59.673Z,22.30
2022-08-31T07:04:28.688Z,22.60
2022-08-31T07:06:56.735Z,22.90
2022-08-31T07:09:25.153Z,23.10
2022-08-31T07:11:54.371Z,23.30
2022-08-31T07:14:24.751Z,23.60
2022-08-31T07:16:53.902Z,23.80
2022-08-31T07:19:30.190Z,24.10
2022-08-31T07:22:00.117Z,24.40
2022-08-31T07:24:33.727Z,24.70
2022-08-31T07:27:05.937Z,24.90
2022-08-31T07:29:40.838Z,25.20
2022-08-31T07:32:11.408Z,25.50
2022-08-31T07:34:45.001Z,25.60
2022-08-31T07:37:30.927Z,25.20
2022-08-31T07:40:41.982Z,25.00
2022-08-31T07:43:45.779Z,24.50
2022-08-31T07:49:52.275Z,23.60
2022-08-31T07:52:36.390Z,23.30
2022-08-31T07:55:10.755Z,23.20
2022-08-31T07:57:43.410Z,23.10
2022-08-31T08:00:14.721Z,23.00
2022-08-31T08:02:53.176Z,23.00
2022-08-31T08:05:27.249Z,23.00
2022-08-31T08:07:59.075Z,23.10
2022-08-31T08:10:27.905Z,23.20
2022-08-31T08:13:01.743Z,23.40
2022-08-31T08:15:36.239Z,23.50
2022-08-31T08:18:05.376Z,23.50
2022-08-31T08:20:37.742Z,23.40
2022-08-31T08:23:11.600Z,23.30
2022-08-31T08:25:43.161Z,23.40
2022-08-31T08:28:38.220Z,23.30
2022-08-31T08:31:06.742Z,23.50
2022-08-31T08:33:37.815Z,23.60
2022-08-31T08:36:09.558Z,23.60
2022-08-31T08:42:15.365Z,23.50
2022-08-31T08:44:44.924Z,23.50
2022-08-31T08:47:16.344Z,23.50
2022-08-31T08:49:54.297Z,23.50
2022-08-31T08:52:26.844Z,23.50
2022-08-31T08:54:56.708Z,23.60
2022-08-31T08:57:28.153Z,23.90
2022-08-31T08:59:59.686Z,24.40
2022-08-31T09:02:34.817Z,24.90
2022-08-31T09:05:21.543Z,25.60
2022-08-31T09:08:05.274Z,26.30
2022-08-31T09:10:39.120Z,27.00
2022-08-31T09:13:17.694Z,26.90
2022-08-31T09:15:55.202Z,26.80
2022-08-31T09:18:32.976Z,27.10
2022-08-31T09:21:04.233Z,27.80
2022-08-31T09:23:37.505Z,29.20
2022-08-31T09:26:08.435Z,30.60
2022-08-31T09:28:40.738Z,31.60
2022-08-31T09:31:09.129Z,32.20
2022-08-31T09:33:51.013Z,32.50
2022-08-31T09:36:22.477Z,32.80
2022-08-31T09:38:51.889Z,33.40
2022-08-31T09:41:32.822Z,33.90
2022-08-31T09:44:22.419Z,34.10
2022-08-31T09:46:53.430Z,34.10
2022-08-31T09:49:23.507Z,33.60
2022-08-31T09:51:52.222Z,33.30
2022-08-31T09:54:37.796Z,32.70
2022-08-31T09:57:08.047Z,32.20
2022-08-31T09:59:40.130Z,31.70
2022-08-31T10:02:12.248Z,31.20
2022-08-31T10:04:54.538Z,30.70
2022-08-31T10:07:37.707Z,31.10
2022-08-31T10:10:28.197Z,31.70
2022-08-31T10:13:03.807Z,31.80
2022-08-31T10:15:39.626Z,32.00
2022-08-31T10:18:14.216Z,32.40
2022-08-31T10:20:46.543Z,32.40
2022-08-31T10:23:27.289Z,32.40
2022-08-31T10:26:04.670Z,31.50
2022-08-31T10:28:37.586Z,31.10
2022-08-31T10:31:13.671Z,31.70
2022-08-31T10:34:06.319Z,31.80
2022-08-31T10:36:38.661Z,31.80
2022-08-31T10:39:16.806Z,32.40
2022-08-31T10:41:51.179Z,32.40
2022-08-31T10:44:26.295Z,31.80
2022-08-31T10:46:58.998Z,31.10
2022-08-31T10:49:27.940Z,30.00
2022-08-31T10:52:03.273Z,29.40
2022-08-31T10:54:41.968Z,29.00
2022-08-31T10:57:25.992Z,28.70
2022-08-31T11:00:03.908Z,28.50
2022-08-31T11:02:41.271Z,28.50
2022-08-31T11:05:22.992Z,28.70
2022-08-31T11:07:58.853Z,28.60
2022-08-31T11:10:39.937Z,28.60
2022-08-31T11:13:17.836Z,28.50
2022-08-31T11:16:18.998Z,28.40
2022-08-31T11:19:17.422Z,27.90
2022-08-31T11:22:02.881Z,27.60
2022-08-31T11:25:15.383Z,27.30
2022-08-31T11:27:49.165Z,27.10
2022-08-31T11:30:24.621Z,27.00
2022-08-31T11:32:55.691Z,26.60
2022-08-31T11:36:05.344Z,26.50
2022-08-31T11:38:52.158Z,26.40
2022-08-31T11:41:36.996Z,26.10
2022-08-31T11:44:07.750Z,25.70
2022-08-31T11:47:06.877Z,25.60
2022-08-31T11:49:38.987Z,25.40
2022-08-31T11:52:12.282Z,25.50
2022-08-31T11:55:12.032Z,25.40
2022-08-31T11:58:20.899Z,25.40
2022-08-31T12:00:56.351Z,25.40
2022-08-31T12:03:50.710Z,25.40
2022-08-31T12:07:08.025Z,25.40
2022-08-31T12:10:09.135Z,25.50
2022-08-31T12:13:03.474Z,25.60
2022-08-31T12:15:44.478Z,25.40
2022-08-31T12:18:22.088Z,25.30
2022-08-31T12:21:15.721Z,25.20
2022-08-31T12:23:53.441Z,25.20
2022-08-31T12:26:49.453Z,25.20
2022-08-31T12:29:26.981Z,25.20
2022-08-31T12:32:21.473Z,25.30
2022-08-31T12:34:56.070Z,25.20
2022-08-31T12:37:28.334Z,25.10
2022-08-31T12:40:16.291Z,25.00
2022-08-31T12:42:57.576Z,24.80
2022-08-31T12:45:53.750Z,24.70
2022-08-31T12:48:38.240Z,24.70
2022-08-31T12:51:15.392Z,24.80
2022-08-31T12:54:03.492Z,24.90
2022-08-31T12:56:39.093Z,24.80
2022-08-31T12:59:20.510Z,24.60
2022-08-31T13:01:51.079Z,24.40
2022-08-31T13:04:21.457Z,24.40
2022-08-31T13:06:49.426Z,24.60
2022-08-31T13:09:31.220Z,25.00
2022-08-31T13:12:01.589Z,25.00
2022-08-31T13:14:39.704Z,24.90
2022-08-31T13:17:15.080Z,24.80
2022-08-31T13:19:49.384Z,24.80
2022-08-31T13:22:27.618Z,24.80
2022-08-31T13:25:10.617Z,24.80
2022-08-31T13:27:41.201Z,24.80
2022-08-31T13:30:19.130Z,24.80
2022-08-31T13:32:49.989Z,24.80
2022-08-31T13:35:21.001Z,24.80
2022-08-31T13:38:03.889Z,24.70
2022-08-31T13:40:37.255Z,24.60
2022-08-31T13:43:08.414Z,24.50
2022-08-31T13:45:43.137Z,24.50
2022-08-31T13:48:16.254Z,24.60
2022-08-31T13:50:52.716Z,24.60
2022-08-31T13:53:40.957Z,24.60
2022-08-31T13:56:53.002Z,24.60
2022-08-31T13:59:32.730Z,24.40
2022-08-31T14:02:03.198Z,24.10
2022-08-31T14:04:39.068Z,24.00
2022-08-31T14:07:07.193Z,23.90
2022-08-31T14:09:35.181Z,23.80
2022-08-31T14:12:05.393Z,23.70
2022-08-31T14:14:43.140Z,23.60
2022-08-31T14:17:17.209Z,23.50
2022-08-31T14:19:46.366Z,23.30
2022-08-31T14:22:32.381Z,23.10
2022-08-31T14:25:02.639Z,23.00
2022-08-31T14:27:41.597Z,23.10
2022-08-31T14:30:10.504Z,23.10
2022-08-31T14:32:38.429Z,23.10
2022-08-31T14:35:12.009Z,23.10
2022-08-31T14:37:42.223Z,23.10
2022-08-31T14:40:14.018Z,23.10
2022-08-31T14:42:44.295Z,23.10
2022-08-31T14:45:18.685Z,23.10
2022-08-31T14:47:52.511Z,23.00
2022-08-31T14:50:25.519Z,22.90
2022-08-31T14:52:55.290Z,22.90
2022-08-31T14:55:24.917Z,22.90
2022-08-31T14:58:01.554Z,22.90
2022-08-31T15:00:31.754Z,23.00
2022-08-31T15:03:02.529Z,23.10
2022-08-31T15:05:32.347Z,23.20
2022-08-31T15:08:00.642Z,23.20
2022-08-31T15:10:28.898Z,23.30
2022-08-31T15:13:05.574Z,23.30
2022-08-31T15:15:33.878Z,23.20
2022-08-31T15:18:04.804Z,23.40
2022-08-31T15:20:39.929Z,23.30
2022-08-31T15:23:08.595Z,23.10
2022-08-31T15:25:39.256Z,23.00
2022-08-31T15:28:09.576Z,22.90
2022-08-31T15:30:39.790Z,22.90
2022-08-31T15:33:11.092Z,23.00
2022-08-31T15:35:43.247Z,22.90
2022-08-31T15:38:11.790Z,22.80
2022-08-31T15:40:40.003Z,22.70
2022-08-31T15:43:15.195Z,22.80
2022-08-31T15:45:43.282Z,22.70
2022-08-31T15:48:28.763Z,22.70
2022-08-31T15:51:00.595Z,22.60
2022-08-31T15:53:30.868Z,22.70
2022-08-31T15:56:05.812Z,22.70
2022-08-31T15:58:39.139Z,22.60
2022-08-31T16:01:12.739Z,22.50
2022-08-31T16:03:42.116Z,22.50
2022-08-31T16:06:11.396Z,22.20
2022-08-31T16:08:41.319Z,22.10
2022-08-31T16:11:11.532Z,21.90
2022-08-31T16:13:51.327Z,21.70
2022-08-31T16:16:20.506Z,21.70
2022-08-31T16:18:51.217Z,21.80
2022-08-31T16:21:22.061Z,21.70
2022-08-31T16:23:55.150Z,21.70
2022-08-31T16:26:23.603Z,21.70
2022-08-31T16:28:53.329Z,21.70
2022-08-31T16:31:21.433Z,21.70
2022-08-31T16:33:49.485Z,21.60
2022-08-31T16:36:19.131Z,21.50
2022-08-31T16:38:48.639Z,21.40
2022-08-31T16:41:17.871Z,21.50
2022-08-31T16:44:03.534Z,21.60
2022-08-31T16:46:40.965Z,21.60
2022-08-31T16:49:28.291Z,21.60
2022-08-31T16:51:56.352Z,21.60
2022-08-31T16:54:26.042Z,21.70
2022-08-31T16:56:55.204Z,21.70
2022-08-31T16:59:23.252Z,21.70
2022-08-31T17:01:53.005Z,21.70
2022-08-31T17:04:48.268Z,21.60
2022-08-31T17:07:15.070Z,21.50
2022-08-31T17:09:43.518Z,21.40
2022-08-31T17:12:15.391Z,21.30
2022-08-31T17:14:46.939Z,21.20
2022-08-31T17:17:18.083Z,21.10
2022-08-31T17:19:47.627Z,21.10
2022-08-31T17:22:25.681Z,21.10
2022-08-31T17:24:57.760Z,21.00
2022-08-31T17:27:27.714Z,21.00
2022-08-31T17:29:58.095Z,20.90
2022-08-31T17:32:29.664Z,20.80
2022-08-31T17:34:58.490Z,20.70
2022-08-31T17:37:30.433Z,20.60
2022-08-31T17:39:59.886Z,20.60
2022-08-31T17:42:29.095Z,20.50
2022-08-31T17:44:59.282Z,20.50
2022-08-31T17:47:28.796Z,20.50
2022-08-31T17:49:56.832Z,20.40
2022-08-31T17:52:24.910Z,20.60
2022-08-31T17:54:53.063Z,20.50
2022-08-31T17:57:25.214Z,20.40
2022-08-31T17:59:55.023Z,20.30
2022-08-31T18:02:26.630Z,20.20
2022-08-31T18:04:56.266Z,20.20
2022-08-31T18:07:24.597Z,20.10
2022-08-31T18:09:59.064Z,20.00
2022-08-31T18:12:27.533Z,20.00
2022-08-31T18:14:58.106Z,19.90
2022-08-31T18:17:29.097Z,20.00
2022-08-31T18:19:58.903Z,20.00
2022-08-31T18:22:28.334Z,20.10
2022-08-31T18:24:56.805Z,20.00
2022-08-31T18:27:25.084Z,20.00
2022-08-31T18:29:53.478Z,19.90
2022-08-31T18:32:21.529Z,19.90
2022-08-31T18:34:52.078Z,19.80
2022-08-31T18:37:25.800Z,19.70
2022-08-31T18:40:12.130Z,19.70
2022-08-31T18:42:57.937Z,19.70
2022-08-31T18:45:26.613Z,19.50
2022-08-31T18:50:46.752Z,19.30
2022-08-31T18:53:28.587Z,19.40
2022-08-31T18:55:58.645Z,19.40
2022-08-31T18:58:26.959Z,19.40
2022-08-31T19:00:57.741Z,19.40
2022-08-31T19:03:27.529Z,19.40
2022-08-31T19:05:56.642Z,19.40
2022-08-31T19:08:26.970Z,19.30
2022-08-31T19:10:58.229Z,19.30
2022-08-31T19:13:31.593Z,19.20
2022-08-31T19:16:03.821Z,19.20
2022-08-31T19:18:34.379Z,19.10
2022-08-31T19:21:12.877Z,19.10
2022-08-31T19:23:43.582Z,19.10
2022-08-31T19:26:11.865Z,19.00
2022-08-31T19:28:39.896Z,19.00
2022-08-31T19:31:11.648Z,19.00
2022-08-31T19:33:39.844Z,18.80
2022-08-31T19:36:08.484Z,18.90
2022-08-31T19:38:38.067Z,18.80
2022-08-31T19:41:15.484Z,18.80
2022-08-31T19:43:49.023Z,18.80
2022-08-31T19:46:25.372Z,18.70
2022-08-31T19:48:54.125Z,18.70
2022-08-31T19:51:24.678Z,18.70
2022-08-31T19:53:53.394Z,18.70
2022-08-31T19:56:28.602Z,18.60
2022-08-31T19:58:56.953Z,18.60
2022-08-31T20:01:33.788Z,18.50
2022-08-31T20:04:04.239Z,18.50
2022-08-31T20:06:32.667Z,18.60
2022-08-31T20:09:00.742Z,18.60
2022-08-31T20:11:32.265Z,18.60
2022-08-31T20:14:01.350Z,18.70
2022-08-31T20:16:34.650Z,18.70
2022-08-31T20:19:04.265Z,18.70
2022-08-31T20:21:35.042Z,18.80
2022-08-31T20:24:06.873Z,18.80
2022-08-31T20:26:46.369Z,18.80
2022-08-31T20:29:18.123Z,18.70
2022-08-31T20:31:48.943Z,18.80
2022-08-31T20:34:19.372Z,18.80
2022-08-31T20:36:50.201Z,18.80
2022-08-31T20:39:19.679Z,18.90
2022-08-31T20:41:50.649Z,18.90
2022-08-31T20:44:21.932Z,18.90
2022-08-31T20:47:10.096Z,18.90
2022-08-31T20:49:40.199Z,18.90
2022-08-31T20:52:10.079Z,19.00
2022-08-31T20:54:39.024Z,19.00
2022-08-31T20:57:10.177Z,19.00
2022-08-31T20:59:38.746Z,19.00
2022-08-31T21:02:08.558Z,19.00
2022-08-31T21:04:39.563Z,19.00
2022-08-31T21:07:12.002Z,19.00
2022-08-31T21:09:40.932Z,19.00
2022-08-31T21:12:14.251Z,19.00
2022-08-31T21:14:46.767Z,19.00
2022-08-31T21:17:15.969Z,18.90
2022-08-31T21:19:44.769Z,19.00
2022-08-31T21:22:14.521Z,18.90
2022-08-31T21:24:43.390Z,18.80
2022-08-31T21:27:18.515Z,18.90
2022-08-31T21:29:47.174Z,18.80
2022-08-31T21:32:16.581Z,18.90
2022-08-31T21:34:44.577Z,18.90
2022-08-31T21:37:12.662Z,18.80
2022-08-31T21:39:41.885Z,18.80
2022-08-31T21:42:09.903Z,18.80
2022-08-31T21:44:39.455Z,18.80
2022-08-31T21:47:09.889Z,18.90
2022-08-31T21:49:37.845Z,18.90
2022-08-31T21:52:05.877Z,18.90
2022-08-31T21:54:33.838Z,18.90
2022-08-31T21:57:03.860Z,18.90
2022-08-31T21:59:35.197Z,18.80
2022-08-31T22:02:06.514Z,18.80
2022-08-31T22:04:36.831Z,18.80
2022-08-31T22:07:08.127Z,18.80
2022-08-31T22:09:37.737Z,18.80
2022-08-31T22:12:07.515Z,18.80
2022-08-31T22:14:38.195Z,18.80
2022-08-31T22:17:08.828Z,18.80
2022-08-31T22:19:39.591Z,18.70
2022-08-31T22:22:12.032Z,18.70
2022-08-31T22:24:42.178Z,18.60
2022-08-31T22:27:12.426Z,18.60
2022-08-31T22:29:41.035Z,18.50
2022-08-31T22:32:12.229Z,18.50
2022-08-31T22:34:41.236Z,18.60
2022-08-31T22:37:09.488Z,18.50
2022-08-31T22:39:37.682Z,18.60
2022-08-31T22:42:06.062Z,18.60
2022-08-31T22:44:36.442Z,18.60
2022-08-31T22:47:05.238Z,18.60
2022-08-31T22:49:35.106Z,18.50
2022-08-31T22:52:03.387Z,18.50
2022-08-31T22:54:31.508Z,18.40
2022-08-31T22:56:59.831Z,18.40
2022-08-31T22:59:28.208Z,18.40
2022-08-31T23:02:03.670Z,18.40
2022-08-31T23:04:35.261Z,18.30
2022-08-31T23:07:04.346Z,18.20
2022-08-31T23:09:34.325Z,18.20
2022-08-31T23:12:04.652Z,18.20
2022-08-31T23:14:33.357Z,18.20
2022-08-31T23:17:04.039Z,18.10
2022-08-31T23:19:37.185Z,18.10
2022-08-31T23:22:08.712Z,18.10
2022-08-31T23:24:38.932Z,18.10
2022-08-31T23:27:09.319Z,18.10
2022-08-31T23:29:40.641Z,18.00
2022-08-31T23:32:12.142Z,18.00
2022-08-31T23:34:42.161Z,18.00
2022-08-31T23:37:11.253Z,17.90
2022-08-31T23:39:43.411Z,17.90
2022-08-31T23:42:13.213Z,17.80
2022-08-31T23:44:43.366Z,17.80
2022-08-31T23:47:13.599Z,17.80
2022-08-31T23:49:46.030Z,17.80
2022-08-31T23:52:15.675Z,17.80
2022-08-31T23:54:43.756Z,17.80
2022-08-31T23:57:31.242Z,17.80
